sensor_id;sensor_type;location;lat;lon;timestamp;pressure;altitude;pressure_sealevel;temperature;humidity
18985;BME280;9626;52.552;13.436;2023-03-01T00:02:21;102520.16;;;-0.57;100.00
18985;BME280;9626;52.552;13.436;2023-03-01T00:05:06;102515.19;;;-0.53;100.00
18985;BME280;9626;52.552;13.436;2023-03-01T00:07:54;102510.88;;;-0.36;100.00
18985;BME280;9626;52.552;13.436;2023-03-01T00:10:40;102504.38;;;-0.27;100.00
18985;BME280;9626;52.552;13.436;2023-03-01T00:13:06;102503.41;;;-0.29;100.00
18985;BME280;9626;52.552;13.436;2023-03-01T00:15:32;102505.22;;;-0.45;100.00
18985;BME280;9626;52.552;13.436;2023-03-01T00:18:00;102504.38;;;-0.75;100.00
18985;BME280;9626;52.552;13.436;2023-03-01T00:20:26;102497.25;;;-0.94;100.00
18985;BME280;9626;52.552;13.436;2023-03-01T00:22:52;102496.47;;;-1.08;100.00
18985;BME280;9626;52.552;13.436;2023-03-01T00:25:18;102495.94;;;-1.17;100.00
18985;BME280;9626;52.552;13.436;2023-03-01T00:27:46;102488.38;;;-1.29;100.00
18985;BME280;9626;52.552;13.436;2023-03-01T00:30:13;102482.59;;;-1.09;100.00
18985;BME280;9626;52.552;13.436;2023-03-01T00:32:39;102480.44;;;-1.16;100.00
18985;BME280;9626;52.552;13.436;2023-03-01T00:35:06;102483.84;;;-1.02;100.00
18985;BME280;9626;52.552;13.436;2023-03-01T00:37:32;102498.19;;;-0.94;100.00
18985;BME280;9626;52.552;13.436;2023-03-01T00:39:58;102494.22;;;-0.87;100.00
18985;BME280;9626;52.552;13.436;2023-03-01T00:42:24;102494.69;;;-0.78;100.00
18985;BME280;9626;52.552;13.436;2023-03-01T00:44:54;102487.53;;;-0.82;100.00
18985;BME280;9626;52.552;13.436;2023-03-01T00:47:20;102482.50;;;-0.95;100.00
18985;BME280;9626;52.552;13.436;2023-03-01T00:50:06;102486.56;;;-0.84;100.00
18985;BME280;9626;52.552;13.436;2023-03-01T00:52:55;102489.34;;;-0.81;100.00
18985;BME280;9626;52.552;13.436;2023-03-01T00:55:21;102491.50;;;-0.89;100.00
18985;BME280;9626;52.552;13.436;2023-03-01T00:58:06;102486.69;;;-0.97;100.00
18985;BME280;9626;52.552;13.436;2023-03-01T01:00:50;102473.00;;;-1.10;100.00
18985;BME280;9626;52.552;13.436;2023-03-01T01:03:19;102472.38;;;-1.06;100.00
18985;BME280;9626;52.552;13.436;2023-03-01T01:06:04;102476.13;;;-1.00;100.00
18985;BME280;9626;52.552;13.436;2023-03-01T01:08:35;102469.69;;;-1.07;100.00
18985;BME280;9626;52.552;13.436;2023-03-01T01:11:20;102469.00;;;-1.20;100.00
18985;BME280;9626;52.552;13.436;2023-03-01T01:14:05;102464.66;;;-1.19;100.00
18985;BME280;9626;52.552;13.436;2023-03-01T01:16:32;102462.78;;;-1.22;100.00
18985;BME280;9626;52.552;13.436;2023-03-01T01:18:58;102457.88;;;-1.17;100.00
18985;BME280;9626;52.552;13.436;2023-03-01T01:21:25;102457.66;;;-1.05;100.00
18985;BME280;9626;52.552;13.436;2023-03-01T01:24:09;102451.72;;;-1.03;100.00
18985;BME280;9626;52.552;13.436;2023-03-01T01:26:36;102447.28;;;-1.20;100.00
18985;BME280;9626;52.552;13.436;2023-03-01T01:29:03;102444.09;;;-1.31;100.00
18985;BME280;9626;52.552;13.436;2023-03-01T01:31:31;102444.28;;;-1.43;100.00
18985;BME280;9626;52.552;13.436;2023-03-01T01:34:15;102436.84;;;-1.66;100.00
18985;BME280;9626;52.552;13.436;2023-03-01T01:37:00;102430.31;;;-1.75;100.00
18985;BME280;9626;52.552;13.436;2023-03-01T01:39:28;102432.19;;;-1.72;100.00
18985;BME280;9626;52.552;13.436;2023-03-01T01:42:18;102426.09;;;-1.58;100.00
18985;BME280;9626;52.552;13.436;2023-03-01T01:44:47;102430.50;;;-1.42;100.00
18985;BME280;9626;52.552;13.436;2023-03-01T01:47:32;102427.41;;;-1.34;100.00
18985;BME280;9626;52.552;13.436;2023-03-01T01:49:58;102428.06;;;-1.54;100.00
18985;BME280;9626;52.552;13.436;2023-03-01T01:52:42;102429.25;;;-1.63;100.00
18985;BME280;9626;52.552;13.436;2023-03-01T01:55:27;102421.72;;;-1.74;100.00
18985;BME280;9626;52.552;13.436;2023-03-01T01:58:14;102417.94;;;-1.79;100.00
18985;BME280;9626;52.552;13.436;2023-03-01T02:00:53;102423.84;;;-1.81;100.00
18985;BME280;9626;52.552;13.436;2023-03-01T02:03:33;102428.31;;;-1.79;100.00
18985;BME280;9626;52.552;13.436;2023-03-01T02:06:26;102428.44;;;-1.92;100.00
18985;BME280;9626;52.552;13.436;2023-03-01T02:09:14;102436.72;;;-1.98;100.00
18985;BME280;9626;52.552;13.436;2023-03-01T02:12:01;102432.25;;;-2.15;100.00
18985;BME280;9626;52.552;13.436;2023-03-01T02:14:46;102433.84;;;-2.17;100.00
18985;BME280;9626;52.552;13.436;2023-03-01T02:17:15;102442.38;;;-2.05;100.00
18985;BME280;9626;52.552;13.436;2023-03-01T02:22:48;102443.34;;;-2.18;100.00
18985;BME280;9626;52.552;13.436;2023-03-01T02:25:50;102450.00;;;-2.36;100.00
18985;BME280;9626;52.552;13.436;2023-03-01T02:28:37;102448.81;;;-2.42;100.00
18985;BME280;9626;52.552;13.436;2023-03-01T02:31:24;102437.94;;;-2.21;100.00
18985;BME280;9626;52.552;13.436;2023-03-01T02:34:41;102446.25;;;-1.98;100.00
18985;BME280;9626;52.552;13.436;2023-03-01T02:37:26;102445.84;;;-2.05;100.00
18985;BME280;9626;52.552;13.436;2023-03-01T02:40:15;102449.69;;;-2.13;100.00
18985;BME280;9626;52.552;13.436;2023-03-01T02:43:02;102440.06;;;-2.15;100.00
18985;BME280;9626;52.552;13.436;2023-03-01T02:45:31;102448.34;;;-2.21;100.00
18985;BME280;9626;52.552;13.436;2023-03-01T02:47:58;102449.22;;;-2.35;100.00
18985;BME280;9626;52.552;13.436;2023-03-01T02:53:19;102438.09;;;-2.48;100.00
18985;BME280;9626;52.552;13.436;2023-03-01T02:55:49;102432.69;;;-2.51;100.00
18985;BME280;9626;52.552;13.436;2023-03-01T02:58:34;102420.53;;;-2.52;100.00
18985;BME280;9626;52.552;13.436;2023-03-01T03:01:14;102418.47;;;-2.43;100.00
18985;BME280;9626;52.552;13.436;2023-03-01T03:04:00;102418.94;;;-2.07;100.00
18985;BME280;9626;52.552;13.436;2023-03-01T03:06:45;102418.44;;;-2.29;100.00
18985;BME280;9626;52.552;13.436;2023-03-01T03:09:29;102418.59;;;-2.41;100.00
18985;BME280;9626;52.552;13.436;2023-03-01T03:11:55;102420.72;;;-2.49;100.00
18985;BME280;9626;52.552;13.436;2023-03-01T03:14:21;102421.06;;;-2.58;100.00
18985;BME280;9626;52.552;13.436;2023-03-01T03:16:49;102429.53;;;-2.60;100.00
18985;BME280;9626;52.552;13.436;2023-03-01T03:19:34;102412.94;;;-2.49;100.00
18985;BME280;9626;52.552;13.436;2023-03-01T03:22:00;102417.91;;;-2.39;100.00
18985;BME280;9626;52.552;13.436;2023-03-01T03:24:26;102411.69;;;-2.41;100.00
18985;BME280;9626;52.552;13.436;2023-03-01T03:27:05;102412.72;;;-2.39;100.00
18985;BME280;9626;52.552;13.436;2023-03-01T03:29:31;102407.50;;;-2.39;100.00
18985;BME280;9626;52.552;13.436;2023-03-01T03:31:58;102412.50;;;-2.42;100.00
18985;BME280;9626;52.552;13.436;2023-03-01T03:34:43;102405.84;;;-2.51;100.00
18985;BME280;9626;52.552;13.436;2023-03-01T03:37:09;102403.13;;;-2.40;100.00
18985;BME280;9626;52.552;13.436;2023-03-01T03:39:55;102397.88;;;-2.26;100.00
18985;BME280;9626;52.552;13.436;2023-03-01T03:42:21;102389.72;;;-2.17;100.00
18985;BME280;9626;52.552;13.436;2023-03-01T03:44:50;102389.81;;;-2.16;100.00
18985;BME280;9626;52.552;13.436;2023-03-01T03:47:16;102385.41;;;-2.32;100.00
18985;BME280;9626;52.552;13.436;2023-03-01T03:49:42;102390.94;;;-2.41;100.00
18985;BME280;9626;52.552;13.436;2023-03-01T03:52:26;102387.06;;;-2.47;100.00
18985;BME280;9626;52.552;13.436;2023-03-01T03:54:54;102386.19;;;-2.48;100.00
18985;BME280;9626;52.552;13.436;2023-03-01T03:57:20;102379.66;;;-2.56;100.00
18985;BME280;9626;52.552;13.436;2023-03-01T03:59:49;102373.09;;;-2.64;100.00
18985;BME280;9626;52.552;13.436;2023-03-01T04:02:18;102376.31;;;-2.68;100.00
18985;BME280;9626;52.552;13.436;2023-03-01T04:04:56;102375.69;;;-2.64;100.00
18985;BME280;9626;52.552;13.436;2023-03-01T04:07:41;102379.06;;;-2.65;100.00
18985;BME280;9626;52.552;13.436;2023-03-01T04:10:10;102377.88;;;-2.70;100.00
18985;BME280;9626;52.552;13.436;2023-03-01T04:12:37;102380.41;;;-2.72;100.00
18985;BME280;9626;52.552;13.436;2023-03-01T04:15:05;102381.22;;;-2.58;100.00
18985;BME280;9626;52.552;13.436;2023-03-01T04:17:41;102380.47;;;-2.42;100.00
18985;BME280;9626;52.552;13.436;2023-03-01T04:20:27;102383.25;;;-2.39;100.00
18985;BME280;9626;52.552;13.436;2023-03-01T04:23:03;102381.63;;;-2.52;100.00
18985;BME280;9626;52.552;13.436;2023-03-01T04:28:25;102381.97;;;-2.74;100.00
18985;BME280;9626;52.552;13.436;2023-03-01T04:30:55;102382.91;;;-2.74;100.00
18985;BME280;9626;52.552;13.436;2023-03-01T04:33:22;102381.09;;;-2.75;100.00
18985;BME280;9626;52.552;13.436;2023-03-01T04:35:49;102379.34;;;-2.89;100.00
18985;BME280;9626;52.552;13.436;2023-03-01T04:38:18;102374.16;;;-2.61;100.00
18985;BME280;9626;52.552;13.436;2023-03-01T04:40:45;102372.03;;;-2.53;100.00
18985;BME280;9626;52.552;13.436;2023-03-01T04:43:12;102373.63;;;-2.55;100.00
18985;BME280;9626;52.552;13.436;2023-03-01T04:45:41;102377.38;;;-2.65;100.00
18985;BME280;9626;52.552;13.436;2023-03-01T04:48:07;102370.91;;;-2.72;100.00
18985;BME280;9626;52.552;13.436;2023-03-01T04:50:34;102376.69;;;-2.76;100.00
18985;BME280;9626;52.552;13.436;2023-03-01T04:53:01;102379.63;;;-2.84;100.00
18985;BME280;9626;52.552;13.436;2023-03-01T04:55:27;102376.66;;;-2.62;100.00
18985;BME280;9626;52.552;13.436;2023-03-01T04:57:54;102372.84;;;-2.54;100.00
18985;BME280;9626;52.552;13.436;2023-03-01T05:00:21;102377.88;;;-2.42;100.00
18985;BME280;9626;52.552;13.436;2023-03-01T05:02:56;102377.78;;;-2.44;100.00
18985;BME280;9626;52.552;13.436;2023-03-01T05:07:52;102374.03;;;-2.49;100.00
18985;BME280;9626;52.552;13.436;2023-03-01T05:10:19;102374.06;;;-2.62;100.00
18985;BME280;9626;52.552;13.436;2023-03-01T05:12:45;102366.19;;;-2.64;100.00
18985;BME280;9626;52.552;13.436;2023-03-01T05:15:12;102366.72;;;-2.69;100.00
18985;BME280;9626;52.552;13.436;2023-03-01T05:17:39;102365.81;;;-2.70;100.00
18985;BME280;9626;52.552;13.436;2023-03-01T05:20:08;102365.63;;;-2.73;100.00
18985;BME280;9626;52.552;13.436;2023-03-01T05:22:35;102369.78;;;-2.90;100.00
18985;BME280;9626;52.552;13.436;2023-03-01T05:25:16;102365.44;;;-3.04;100.00
18985;BME280;9626;52.552;13.436;2023-03-01T05:28:01;102360.09;;;-3.21;100.00
18985;BME280;9626;52.552;13.436;2023-03-01T05:30:48;102357.38;;;-3.09;100.00
18985;BME280;9626;52.552;13.436;2023-03-01T05:33:17;102368.00;;;-3.04;100.00
18985;BME280;9626;52.552;13.436;2023-03-01T05:35:45;102366.81;;;-3.10;100.00
18985;BME280;9626;52.552;13.436;2023-03-01T05:38:32;102361.53;;;-2.98;100.00
18985;BME280;9626;52.552;13.436;2023-03-01T05:41:17;102364.22;;;-3.10;100.00
18985;BME280;9626;52.552;13.436;2023-03-01T05:44:01;102364.56;;;-3.18;100.00
18985;BME280;9626;52.552;13.436;2023-03-01T05:46:46;102356.59;;;-3.21;100.00
18985;BME280;9626;52.552;13.436;2023-03-01T05:49:31;102355.50;;;-3.25;100.00
18985;BME280;9626;52.552;13.436;2023-03-01T05:51:57;102361.56;;;-3.25;100.00
18985;BME280;9626;52.552;13.436;2023-03-01T05:54:23;102359.28;;;-3.20;100.00
18985;BME280;9626;52.552;13.436;2023-03-01T05:56:49;102357.50;;;-3.21;100.00
18985;BME280;9626;52.552;13.436;2023-03-01T05:59:34;102363.84;;;-3.02;100.00
18985;BME280;9626;52.552;13.436;2023-03-01T06:02:00;102359.25;;;-2.78;100.00
18985;BME280;9626;52.552;13.436;2023-03-01T06:04:26;102363.13;;;-2.72;100.00
18985;BME280;9626;52.552;13.436;2023-03-01T06:07:01;102359.91;;;-2.67;100.00
18985;BME280;9626;52.552;13.436;2023-03-01T06:09:29;102356.09;;;-2.59;100.00
18985;BME280;9626;52.552;13.436;2023-03-01T06:11:57;102364.50;;;-2.63;100.00
18985;BME280;9626;52.552;13.436;2023-03-01T06:14:24;102363.03;;;-2.73;100.00
18985;BME280;9626;52.552;13.436;2023-03-01T06:16:50;102362.06;;;-2.75;100.00
18985;BME280;9626;52.552;13.436;2023-03-01T06:19:16;102353.72;;;-2.84;100.00
18985;BME280;9626;52.552;13.436;2023-03-01T06:22:01;102364.38;;;-2.93;100.00
18985;BME280;9626;52.552;13.436;2023-03-01T06:24:27;102362.28;;;-2.85;100.00
18985;BME280;9626;52.552;13.436;2023-03-01T06:26:55;102361.66;;;-2.81;100.00
18985;BME280;9626;52.552;13.436;2023-03-01T06:29:21;102361.56;;;-2.83;100.00
18985;BME280;9626;52.552;13.436;2023-03-01T06:32:06;102368.94;;;-2.76;100.00
18985;BME280;9626;52.552;13.436;2023-03-01T06:34:34;102366.69;;;-2.56;100.00
18985;BME280;9626;52.552;13.436;2023-03-01T06:37:00;102367.69;;;-2.67;100.00
18985;BME280;9626;52.552;13.436;2023-03-01T06:39:31;102376.53;;;-2.50;100.00
18985;BME280;9626;52.552;13.436;2023-03-01T06:41:57;102379.75;;;-2.40;100.00
18985;BME280;9626;52.552;13.436;2023-03-01T06:44:44;102380.66;;;-2.39;100.00
18985;BME280;9626;52.552;13.436;2023-03-01T06:47:29;102379.50;;;-2.29;100.00
18985;BME280;9626;52.552;13.436;2023-03-01T06:50:14;102373.97;;;-2.21;100.00
18985;BME280;9626;52.552;13.436;2023-03-01T06:52:40;102374.94;;;-2.33;100.00
18985;BME280;9626;52.552;13.436;2023-03-01T06:55:07;102379.75;;;-2.40;100.00
18985;BME280;9626;52.552;13.436;2023-03-01T06:57:48;102383.41;;;-2.36;100.00
18985;BME280;9626;52.552;13.436;2023-03-01T07:00:15;102373.69;;;-2.25;100.00
18985;BME280;9626;52.552;13.436;2023-03-01T07:02:59;102374.63;;;-2.10;100.00
18985;BME280;9626;52.552;13.436;2023-03-01T07:05:44;102376.59;;;-2.06;100.00
18985;BME280;9626;52.552;13.436;2023-03-01T07:08:10;102380.53;;;-1.97;100.00
18985;BME280;9626;52.552;13.436;2023-03-01T07:10:36;102380.44;;;-1.84;100.00
18985;BME280;9626;52.552;13.436;2023-03-01T07:13:22;102383.53;;;-1.75;100.00
18985;BME280;9626;52.552;13.436;2023-03-01T07:16:07;102384.09;;;-1.65;100.00
18985;BME280;9626;52.552;13.436;2023-03-01T07:18:51;102384.16;;;-1.49;100.00
18985;BME280;9626;52.552;13.436;2023-03-01T07:21:36;102386.00;;;-1.31;100.00
18985;BME280;9626;52.552;13.436;2023-03-01T07:24:22;102383.59;;;-1.12;100.00
18985;BME280;9626;52.552;13.436;2023-03-01T07:27:07;102382.69;;;-0.81;100.00
18985;BME280;9626;52.552;13.436;2023-03-01T07:29:51;102387.72;;;-0.35;100.00
18985;BME280;9626;52.552;13.436;2023-03-01T07:32:17;102385.13;;;0.16;100.00
18985;BME280;9626;52.552;13.436;2023-03-01T07:35:02;102379.97;;;0.72;100.00
18985;BME280;9626;52.552;13.436;2023-03-01T07:37:47;102384.03;;;1.23;100.00
18985;BME280;9626;52.552;13.436;2023-03-01T07:40:31;102380.00;;;1.68;100.00
18985;BME280;9626;52.552;13.436;2023-03-01T07:43:03;102377.75;;;1.97;100.00
18985;BME280;9626;52.552;13.436;2023-03-01T07:45:47;102376.34;;;2.06;100.00
18985;BME280;9626;52.552;13.436;2023-03-01T07:48:32;102371.59;;;1.76;100.00
18985;BME280;9626;52.552;13.436;2023-03-01T07:51:17;102376.56;;;1.69;100.00
18985;BME280;9626;52.552;13.436;2023-03-01T07:54:02;102376.81;;;1.95;99.15
18985;BME280;9626;52.552;13.436;2023-03-01T07:56:28;102380.19;;;2.14;96.31
18985;BME280;9626;52.552;13.436;2023-03-01T07:58:54;102379.56;;;2.41;94.06
18985;BME280;9626;52.552;13.436;2023-03-01T08:01:21;102381.03;;;2.78;90.11
18985;BME280;9626;52.552;13.436;2023-03-01T08:03:47;102379.00;;;3.16;83.37
18985;BME280;9626;52.552;13.436;2023-03-01T08:06:25;102375.19;;;3.30;79.78
18985;BME280;9626;52.552;13.436;2023-03-01T08:08:51;102377.56;;;3.24;79.37
18985;BME280;9626;52.552;13.436;2023-03-01T08:11:17;102382.47;;;3.39;78.19
18985;BME280;9626;52.552;13.436;2023-03-01T08:13:47;102377.00;;;3.57;76.05
18985;BME280;9626;52.552;13.436;2023-03-01T08:16:32;102370.63;;;3.25;75.16
18985;BME280;9626;52.552;13.436;2023-03-01T08:19:04;102369.72;;;3.48;75.43
18985;BME280;9626;52.552;13.436;2023-03-01T08:21:30;102371.63;;;4.02;70.29
18985;BME280;9626;52.552;13.436;2023-03-01T08:23:56;102365.47;;;4.55;67.06
18985;BME280;9626;52.552;13.436;2023-03-01T08:26:22;102366.06;;;4.73;65.57
18985;BME280;9626;52.552;13.436;2023-03-01T08:28:49;102363.22;;;5.25;61.54
18985;BME280;9626;52.552;13.436;2023-03-01T08:31:23;102360.16;;;5.40;59.65
18985;BME280;9626;52.552;13.436;2023-03-01T08:33:51;102350.84;;;4.92;60.32
18985;BME280;9626;52.552;13.436;2023-03-01T08:36:31;102352.81;;;5.62;57.48
18985;BME280;9626;52.552;13.436;2023-03-01T08:38:59;102345.81;;;5.94;55.83
18985;BME280;9626;52.552;13.436;2023-03-01T08:41:26;102348.00;;;6.46;54.05
18985;BME280;9626;52.552;13.436;2023-03-01T08:43:52;102348.25;;;6.96;53.14
18985;BME280;9626;52.552;13.436;2023-03-01T08:46:18;102353.41;;;6.90;53.13
18985;BME280;9626;52.552;13.436;2023-03-01T08:48:44;102352.22;;;6.77;52.94
18985;BME280;9626;52.552;13.436;2023-03-01T08:51:15;102352.41;;;6.85;52.88
18985;BME280;9626;52.552;13.436;2023-03-01T08:53:42;102347.13;;;7.26;50.97
18985;BME280;9626;52.552;13.436;2023-03-01T08:56:09;102349.91;;;7.79;49.56
18985;BME280;9626;52.552;13.436;2023-03-01T08:58:36;102346.88;;;8.08;48.72
18985;BME280;9626;52.552;13.436;2023-03-01T09:01:14;102349.16;;;8.37;48.47
18985;BME280;9626;52.552;13.436;2023-03-01T09:03:41;102339.31;;;8.84;46.54
18985;BME280;9626;52.552;13.436;2023-03-01T09:06:07;102338.50;;;9.66;44.20
18985;BME280;9626;52.552;13.436;2023-03-01T09:08:38;102334.16;;;10.80;42.10
18985;BME280;9626;52.552;13.436;2023-03-01T09:11:06;102335.81;;;10.66;41.12
18985;BME280;9626;52.552;13.436;2023-03-01T09:13:36;102340.97;;;10.41;41.69
18985;BME280;9626;52.552;13.436;2023-03-01T09:16:04;102345.88;;;11.40;39.49
18985;BME280;9626;52.552;13.436;2023-03-01T09:18:31;102340.66;;;11.52;39.12
18985;BME280;9626;52.552;13.436;2023-03-01T09:21:16;102336.88;;;10.91;39.90
18985;BME280;9626;52.552;13.436;2023-03-01T09:24:01;102340.69;;;11.69;38.33
18985;BME280;9626;52.552;13.436;2023-03-01T09:26:47;102335.44;;;12.39;37.93
18985;BME280;9626;52.552;13.436;2023-03-01T09:29:31;102335.31;;;12.88;36.46
18985;BME280;9626;52.552;13.436;2023-03-01T09:32:15;102335.38;;;12.73;36.55
18985;BME280;9626;52.552;13.436;2023-03-01T09:34:47;102332.75;;;12.49;36.33
18985;BME280;9626;52.552;13.436;2023-03-01T09:37:36;102332.53;;;13.24;35.55
18985;BME280;9626;52.552;13.436;2023-03-01T09:40:05;102334.22;;;13.45;35.18
18985;BME280;9626;52.552;13.436;2023-03-01T09:42:35;102337.53;;;13.82;36.97
18985;BME280;9626;52.552;13.436;2023-03-01T09:45:18;102324.78;;;12.52;36.74
18985;BME280;9626;52.552;13.436;2023-03-01T09:47:49;102325.66;;;11.76;37.43
18985;BME280;9626;52.552;13.436;2023-03-01T09:50:20;102325.72;;;11.96;37.15
18985;BME280;9626;52.552;13.436;2023-03-01T09:52:53;102326.50;;;12.77;36.20
18985;BME280;9626;52.552;13.436;2023-03-01T09:55:52;102329.94;;;13.14;35.24
18985;BME280;9626;52.552;13.436;2023-03-01T09:58:46;102328.94;;;10.96;38.37
18985;BME280;9626;52.552;13.436;2023-03-01T10:06:38;102328.47;;;10.26;39.87
18985;BME280;9626;52.552;13.436;2023-03-01T10:09:13;102325.72;;;10.15;38.73
18985;BME280;9626;52.552;13.436;2023-03-01T10:11:49;102331.75;;;9.94;40.37
18985;BME280;9626;52.552;13.436;2023-03-01T10:14:35;102338.50;;;9.63;39.86
18985;BME280;9626;52.552;13.436;2023-03-01T10:19:45;102337.78;;;9.82;40.79
18985;BME280;9626;52.552;13.436;2023-03-01T10:22:20;102335.53;;;10.24;39.61
18985;BME280;9626;52.552;13.436;2023-03-01T10:24:51;102332.44;;;10.92;38.03
18985;BME280;9626;52.552;13.436;2023-03-01T10:27:49;102339.75;;;11.53;36.18
18985;BME280;9626;52.552;13.436;2023-03-01T10:30:39;102325.69;;;12.33;35.07
18985;BME280;9626;52.552;13.436;2023-03-01T10:33:28;102326.44;;;11.41;36.73
18985;BME280;9626;52.552;13.436;2023-03-01T10:36:13;102319.47;;;11.88;36.16
18985;BME280;9626;52.552;13.436;2023-03-01T10:38:58;102321.94;;;13.14;34.00
18985;BME280;9626;52.552;13.436;2023-03-01T10:41:26;102315.72;;;13.14;33.68
18985;BME280;9626;52.552;13.436;2023-03-01T10:44:38;102311.41;;;12.93;34.08
18985;BME280;9626;52.552;13.436;2023-03-01T10:47:27;102309.50;;;13.23;33.84
18985;BME280;9626;52.552;13.436;2023-03-01T10:50:04;102306.16;;;12.68;33.76
18985;BME280;9626;52.552;13.436;2023-03-01T10:53:03;102297.38;;;12.38;34.38
18985;BME280;9626;52.552;13.436;2023-03-01T10:55:56;102297.41;;;12.06;34.75
18985;BME280;9626;52.552;13.436;2023-03-01T11:01:28;102291.88;;;11.02;35.34
18985;BME280;9626;52.552;13.436;2023-03-01T11:04:14;102291.63;;;10.56;36.09
18985;BME280;9626;52.552;13.436;2023-03-01T11:07:01;102282.50;;;10.17;36.01
18985;BME280;9626;52.552;13.436;2023-03-01T11:09:46;102292.22;;;9.24;38.34
18985;BME280;9626;52.552;13.436;2023-03-01T11:12:27;102274.09;;;8.79;39.20
18985;BME280;9626;52.552;13.436;2023-03-01T11:15:22;102272.69;;;9.09;37.55
18985;BME280;9626;52.552;13.436;2023-03-01T11:17:48;102266.00;;;9.42;36.32
18985;BME280;9626;52.552;13.436;2023-03-01T11:20:37;102265.78;;;10.24;35.00
18985;BME280;9626;52.552;13.436;2023-03-01T11:23:22;102264.91;;;10.22;35.67
18985;BME280;9626;52.552;13.436;2023-03-01T11:25:55;102263.81;;;9.96;35.94
18985;BME280;9626;52.552;13.436;2023-03-01T11:28:41;102265.69;;;10.10;35.38
18985;BME280;9626;52.552;13.436;2023-03-01T11:31:24;102259.59;;;10.19;35.30
18985;BME280;9626;52.552;13.436;2023-03-01T11:34:13;102263.38;;;10.58;34.28
18985;BME280;9626;52.552;13.436;2023-03-01T11:37:02;102259.31;;;11.62;34.19
18985;BME280;9626;52.552;13.436;2023-03-01T11:39:54;102250.34;;;12.63;32.35
18985;BME280;9626;52.552;13.436;2023-03-01T11:57:58;102249.41;;;14.13;28.45
18985;BME280;9626;52.552;13.436;2023-03-01T12:01:19;102253.97;;;12.44;29.69
18985;BME280;9626;52.552;13.436;2023-03-01T12:10:19;102237.78;;;10.58;32.70
18985;BME280;9626;52.552;13.436;2023-03-01T12:13:20;102236.06;;;10.67;32.99
18985;BME280;9626;52.552;13.436;2023-03-01T12:18:30;102236.31;;;11.44;32.23
18985;BME280;9626;52.552;13.436;2023-03-01T12:44:11;102197.34;;;14.62;25.20
18985;BME280;9626;52.552;13.436;2023-03-01T12:47:09;102199.91;;;14.73;25.25
18985;BME280;9626;52.552;13.436;2023-03-01T12:49:37;102191.16;;;14.59;25.41
18985;BME280;9626;52.552;13.436;2023-03-01T12:52:43;102193.09;;;14.47;25.98
18985;BME280;9626;52.552;13.436;2023-03-01T12:55:02;102187.63;;;14.58;25.40
18985;BME280;9626;52.552;13.436;2023-03-01T12:57:38;102177.16;;;14.44;25.86
18985;BME280;9626;52.552;13.436;2023-03-01T13:05:34;102179.81;;;14.44;29.87
18985;BME280;9626;52.552;13.436;2023-03-01T13:08:16;102182.03;;;14.81;26.57
18985;BME280;9626;52.552;13.436;2023-03-01T13:10:48;102180.00;;;14.27;26.54
18985;BME280;9626;52.552;13.436;2023-03-01T13:13:26;102173.75;;;14.30;26.80
18985;BME280;9626;52.552;13.436;2023-03-01T13:15:53;102175.78;;;14.84;26.03
18985;BME280;9626;52.552;13.436;2023-03-01T13:20:49;102166.44;;;13.62;26.69
18985;BME280;9626;52.552;13.436;2023-03-01T13:26:17;102166.19;;;12.67;27.81
18985;BME280;9626;52.552;13.436;2023-03-01T13:33:53;102153.19;;;11.48;30.52
18985;BME280;9626;52.552;13.436;2023-03-01T13:38:58;102149.59;;;10.87;31.04
18985;BME280;9626;52.552;13.436;2023-03-01T13:44:29;102141.56;;;10.64;31.44
18985;BME280;9626;52.552;13.436;2023-03-01T13:46:59;102147.78;;;10.77;31.92
18985;BME280;9626;52.552;13.436;2023-03-01T13:49:29;102136.28;;;10.64;33.20
18985;BME280;9626;52.552;13.436;2023-03-01T13:51:57;102141.59;;;10.79;33.18
18985;BME280;9626;52.552;13.436;2023-03-01T13:54:41;102137.28;;;11.14;32.55
18985;BME280;9626;52.552;13.436;2023-03-01T13:57:32;102129.31;;;11.49;32.42
18985;BME280;9626;52.552;13.436;2023-03-01T14:00:38;102127.50;;;11.92;32.04
18985;BME280;9626;52.552;13.436;2023-03-01T14:03:18;102127.50;;;11.86;32.03
18985;BME280;9626;52.552;13.436;2023-03-01T14:06:47;102118.63;;;11.93;32.29
18985;BME280;9626;52.552;13.436;2023-03-01T14:12:02;102108.94;;;11.75;32.44
18985;BME280;9626;52.552;13.436;2023-03-01T14:15:01;102108.03;;;11.99;32.70
18985;BME280;9626;52.552;13.436;2023-03-01T14:18:12;102105.25;;;12.34;32.46
18985;BME280;9626;52.552;13.436;2023-03-01T14:20:44;102108.34;;;13.08;31.97
18985;BME280;9626;52.552;13.436;2023-03-01T14:23:38;102094.88;;;13.26;30.49
18985;BME280;9626;52.552;13.436;2023-03-01T14:26:08;102088.44;;;12.34;32.09
18985;BME280;9626;52.552;13.436;2023-03-01T14:28:36;102087.75;;;11.59;33.23
18985;BME280;9626;52.552;13.436;2023-03-01T14:31:37;102089.53;;;11.00;34.62
18985;BME280;9626;52.552;13.436;2023-03-01T14:34:04;102085.13;;;11.10;34.77
18985;BME280;9626;52.552;13.436;2023-03-01T14:36:33;102084.09;;;11.93;33.95
18985;BME280;9626;52.552;13.436;2023-03-01T14:38:59;102081.19;;;12.61;33.12
18985;BME280;9626;52.552;13.436;2023-03-01T14:41:35;102081.31;;;12.42;33.04
18985;BME280;9626;52.552;13.436;2023-03-01T14:44:23;102081.09;;;12.73;32.99
18985;BME280;9626;52.552;13.436;2023-03-01T14:46:53;102074.84;;;12.85;32.71
18985;BME280;9626;52.552;13.436;2023-03-01T14:49:23;102064.63;;;13.41;32.15
18985;BME280;9626;52.552;13.436;2023-03-01T14:52:04;102076.59;;;12.88;32.55
18985;BME280;9626;52.552;13.436;2023-03-01T14:54:43;102066.97;;;12.71;32.47
18985;BME280;9626;52.552;13.436;2023-03-01T14:57:18;102071.47;;;12.61;32.99
18985;BME280;9626;52.552;13.436;2023-03-01T14:59:45;102068.69;;;12.78;32.68
18985;BME280;9626;52.552;13.436;2023-03-01T15:02:30;102068.06;;;12.33;33.60
18985;BME280;9626;52.552;13.436;2023-03-01T15:05:21;102063.19;;;13.00;32.65
18985;BME280;9626;52.552;13.436;2023-03-01T15:07:49;102070.38;;;12.90;32.38